• Join FlightAware (Why Join?)
  • Login
  • US Flag 
12:59PM EST


 

Airport Tracker/Info


-or-


 

Live Flight TrackerFlight Track Log ✈ SKW6377 ✈ 28-Apr-2013 ✈ KCPR - KDEN

Flight Track Log - Related Links

Times and Time Zones

All times are in EDT time to prevent confusion due to time zone crossing. See the SKW6377 flight status page for this flight to view local times or setup timezone preferences in your user account.

Time Position Orientation Groundspeed Altitude Reporting Facility
EDT Latitude Longitude Course Direction KTS MPH feet Rate Location/Type
02:48PM 42.7069 -106.5056 157° South 297 342 12,000  Level Denver Center
02:49PM 42.8526 -106.2667 180° South  Level FlightAware Approximate
02:49PM 42.6153 -106.4408 153° Southeast 326 375 14,500  Level Denver Center
02:50PM 42.7376 -106.2667 180° South  Level FlightAware Approximate
02:50PM 42.5336 -106.3853 153° Southeast 341 392 16,300  Level Denver Center
02:51PM 42.6228 -106.2602 176° South  Level FlightAware Approximate
02:51PM 42.4347 -106.3161 153° Southeast 357 411 18,300  Level Denver Center
02:52PM 42.5081 -106.2507 176° South  Level FlightAware Approximate
02:52PM 42.3417 -106.2647 158° South 375 432 19,800  Level Denver Center
02:53PM 42.3931 -106.2500 180° South  Level FlightAware Approximate
02:53PM 42.2283 -106.2597 178° South 369 425 21,700  Level Denver Center
02:54PM 42.1308 -106.2583 179° South 367 422 23,100 1,403 Climbing Denver Center
02:56PM 42.0119 -106.2553 179° South 381 438 24,600 1,268 Climbing Denver Center
02:57PM 41.9097 -106.2542 180° South 383 441 25,700 1,073 Climbing Denver Center
02:58PM 41.7853 -106.2522 179° South 395 455 26,800 629 Climbing Denver Center
02:59PM 41.6769 -106.2494 179° South 403 464 27,000 97 Climbing Denver Center
03:00PM 41.5433 -106.2475 179° South 425 489 27,000  Level Denver Center
03:01PM 41.4247 -106.2306 174° South 453 521 27,000  Level Denver Center
03:02PM 41.2881 -106.1725 162° South 461 531 27,000  Level Denver Center
03:03PM 41.1711 -106.1228 162° South 462 532 27,000  Level Denver Center
03:04PM 41.0561 -106.0628 159° South 466 536 27,000  Level Denver Center
03:05PM 40.9219 -105.9864 157° South 461 531 27,000 -576 Level Denver Center
03:06PM 40.8242 -105.8431 132° Southeast 449 517 25,800 -960 Descending Denver Center
03:07PM 40.7536 -105.7125 125° Southeast 437 503 25,000 -677 Descending Denver Center
03:08PM 40.6814 -105.5833 126° Southeast 433 498 24,400 -919 Descending Denver Center
03:09PM 40.6025 -105.4392 126° Southeast 413 475 23,100 -1,210 Descending Denver Center
03:10PM 40.5353 -105.3164 126° Southeast 409 471 21,900 -1,258 Descending Denver Center
03:11PM 40.4631 -105.2117 132° Southeast 393 452 20,500 -1,742 Descending Denver Center
03:12PM 40.3794 -105.1461 149° Southeast 350 403 18,300 -1,887 Descending Denver Center
03:13PM 40.2914 -105.0753 148° Southeast 347 399 16,600 -1,452 Descending Denver Center
03:14PM 40.2100 -105.0119 149° Southeast 342 394 15,300 -1,113 Descending Denver Center
03:15PM 40.1272 -104.9447 148° Southeast 325 374 14,300 -968 Descending Denver Center
03:16PM 40.0494 -104.8831 149° Southeast 326 375 13,300 -871 Descending Denver Center
03:17PM 39.9672 -104.8181 149° Southeast 321 369 12,500 -1,016 Descending Denver Center
03:18PM 39.8842 -104.8064 174° South 308 354 11,200 -726 Descending Denver Center
03:19PM 39.8022 -104.8050 179° South 259 298 11,000 -293 Descending Denver Center
03:21PM 39.7419 -104.7931 171° South 259 298 10,600 -871 Descending Denver Center
03:22PM 39.7042 -104.7144 122° Southeast 242 278 9,200 -1,333 Descending Denver Center